Time;durP1;ratioP1;P1;durP2;ratioP2;P2;SDS_P1;SDS_P2;PMS_P1;PMS_P2;Temp;Humidity;BMP_temperature;BMP_pressure;BME280_temperature;BME280_humidity;BME280_pressure;Samples;Min_cycle;Max_cycle;Signal;HPM_P1;HPM_P2
2021/04/02 00:01:37;;;;;;;32.38;15.35;;;10.40;99.90;;;;;;5053590;28;20063;-71
2021/04/02 00:04:03;;;;;;;39.47;15.80;;;10.40;99.90;;;;;;5052060;28;20032;-71
2021/04/02 00:06:29;;;;;;;25.85;14.25;;;10.40;99.90;;;;;;5053503;28;20021;-72
2021/04/02 00:08:54;;;;;;;28.48;15.20;;;10.30;99.90;;;;;;5053545;28;20462;-70
2021/04/02 00:11:20;;;;;;;30.20;14.98;;;10.30;99.90;;;;;;5053059;28;20024;-71
2021/04/02 00:13:47;;;;;;;22.90;13.80;;;10.30;99.90;;;;;;5052519;28;20036;-72
2021/04/02 00:16:15;;;;;;;24.08;13.32;;;10.30;99.90;;;;;;5053003;28;20024;-72
2021/04/02 00:18:41;;;;;;;29.20;14.60;;;10.20;99.90;;;;;;5053001;28;20132;-70
2021/04/02 00:21:10;;;;;;;30.45;15.02;;;10.20;99.90;;;;;;5053259;28;20017;-70
2021/04/02 00:23:36;;;;;;;25.23;14.52;;;10.10;99.90;;;;;;5052714;28;20437;-71
2021/04/02 00:26:08;;;;;;;27.20;14.13;;;10.10;99.90;;;;;;5053285;28;20020;-71
2021/04/02 00:28:34;;;;;;;32.25;15.27;;;10.10;99.90;;;;;;5053082;28;20493;-71
2021/04/02 00:31:00;;;;;;;30.88;14.85;;;10.10;99.90;;;;;;5051966;28;20084;-71
2021/04/02 00:33:31;;;;;;;25.60;13.48;;;10.10;99.90;;;;;;5051198;28;20455;-71
2021/04/02 00:35:59;;;;;;;29.13;14.50;;;10.00;99.90;;;;;;5053421;28;20029;-69
2021/04/02 00:38:25;;;;;;;31.33;15.90;;;10.00;99.90;;;;;;5051931;28;20021;-71
2021/04/02 00:40:57;;;;;;;29.77;15.40;;;10.00;99.90;;;;;;5052412;28;20095;-71
2021/04/02 00:43:36;;;;;;;27.85;15.55;;;9.90;99.90;;;;;;5050926;28;20364;-71
2021/04/02 00:46:02;;;;;;;27.00;14.68;;;9.90;99.90;;;;;;5053231;28;20100;-71
2021/04/02 00:48:28;;;;;;;27.73;15.63;;;9.90;99.90;;;;;;5053377;28;20548;-70
2021/04/02 00:51:05;;;;;;;30.35;15.90;;;9.90;99.90;;;;;;5059086;28;20028;-71
2021/04/02 00:53:33;;;;;;;29.08;15.45;;;10.00;99.90;;;;;;5057995;28;20037;-70
2021/04/02 00:56:00;;;;;;;28.63;15.15;;;9.90;99.90;;;;;;5038821;28;20018;-71
2021/04/02 00:58:29;;;;;;;28.70;15.00;;;9.90;99.90;;;;;;5038431;28;20037;-71
2021/04/02 01:00:55;;;;;;;29.50;16.02;;;9.80;99.90;;;;;;5038997;28;20021;-71
2021/04/02 01:03:22;;;;;;;36.22;17.67;;;9.80;99.90;;;;;;5038719;28;20099;-71
2021/04/02 01:05:50;;;;;;;33.47;18.02;;;9.70;99.90;;;;;;5041328;28;20049;-70
2021/04/02 01:08:35;;;;;;;38.83;17.65;;;9.70;99.90;;;;;;5039789;28;20025;-71
2021/04/02 01:11:03;;;;;;;37.42;14.90;;;9.70;99.90;;;;;;5041497;28;20025;-71
2021/04/02 01:13:47;;;;;;;26.55;14.18;;;9.70;99.90;;;;;;5041906;28;20036;-70
2021/04/02 01:16:19;;;;;;;26.60;14.85;;;9.80;99.90;;;;;;5042201;28;20072;-71
2021/04/02 01:18:59;;;;;;;31.23;15.65;;;9.80;99.90;;;;;;5042333;28;20021;-71
2021/04/02 01:21:45;;;;;;;28.70;15.30;;;9.80;99.90;;;;;;5060781;28;20089;-73
2021/04/02 01:24:11;;;;;;;26.90;15.02;;;9.80;99.90;;;;;;5060968;28;20056;-72
2021/04/02 01:26:39;;;;;;;25.63;14.98;;;9.70;99.90;;;;;;5058815;28;20032;-72
2021/04/02 01:29:40;;;;;;;25.77;14.63;;;9.60;99.90;;;;;;5052059;28;20032;-73
2021/04/02 01:32:09;;;;;;;26.52;15.50;;;9.70;99.90;;;;;;5034611;28;20116;-71
2021/04/02 01:34:37;;;;;;;27.48;14.25;;;9.60;99.90;;;;;;5051825;28;20033;-70
2021/04/02 01:37:13;;;;;;;29.48;14.55;;;9.60;99.90;;;;;;5054184;28;20710;-71
2021/04/02 01:39:41;;;;;;;33.22;16.65;;;9.60;99.90;;;;;;5051284;28;20101;-71
2021/04/02 01:42:13;;;;;;;32.72;18.17;;;9.60;99.90;;;;;;5051704;28;20096;-71
2021/04/02 01:44:41;;;;;;;34.10;17.23;;;9.50;99.90;;;;;;5050846;28;20017;-71
2021/04/02 01:47:08;;;;;;;27.88;17.38;;;9.40;99.90;;;;;;5051431;28;20044;-71
2021/04/02 01:49:36;;;;;;;32.70;18.20;;;9.40;99.90;;;;;;5051334;28;20025;-70
2021/04/02 01:52:03;;;;;;;33.80;16.75;;;9.40;99.90;;;;;;5051236;28;20028;-71
2021/04/02 01:54:29;;;;;;;32.67;16.60;;;9.30;99.90;;;;;;5050619;28;20166;-70
2021/04/02 01:56:56;;;;;;;30.88;16.48;;;9.20;99.90;;;;;;5051221;28;20390;-72
2021/04/02 01:59:24;;;;;;;26.40;16.20;;;9.20;99.90;;;;;;5051127;28;20475;-71
2021/04/02 02:01:50;;;;;;;31.92;18.23;;;9.20;99.90;;;;;;5051375;28;20120;-71
2021/04/02 02:04:21;;;;;;;38.20;20.60;;;9.20;99.90;;;;;;5050430;28;20017;-71
2021/04/02 02:06:49;;;;;;;37.83;20.17;;;9.10;99.90;;;;;;5050794;28;20032;-71
2021/04/02 02:09:20;;;;;;;41.75;19.15;;;9.10;99.90;;;;;;5051183;28;20028;-70
2021/04/02 02:11:49;;;;;;;41.75;20.90;;;9.00;99.90;;;;;;5051136;28;20082;-72
2021/04/02 02:14:17;;;;;;;28.73;17.20;;;9.00;99.90;;;;;;5050346;28;20100;-72
2021/04/02 02:16:48;;;;;;;30.17;18.25;;;8.90;99.90;;;;;;5050675;28;20074;-71
2021/04/02 02:19:16;;;;;;;29.20;16.55;;;8.90;99.90;;;;;;5050738;28;20170;-71
2021/04/02 02:21:45;;;;;;;28.67;16.90;;;9.00;99.90;;;;;;5050788;28;20021;-72
2021/04/02 02:24:11;;;;;;;32.97;17.48;;;8.90;99.90;;;;;;5050154;28;20536;-71
2021/04/02 02:26:40;;;;;;;35.13;16.73;;;9.00;99.90;;;;;;5050990;28;20498;-71
2021/04/02 02:29:05;;;;;;;33.78;16.92;;;8.90;99.90;;;;;;5050809;28;20017;-71
2021/04/02 02:31:31;;;;;;;31.63;16.58;;;8.90;99.90;;;;;;5051015;28;20028;-70
2021/04/02 02:33:58;;;;;;;29.67;17.40;;;8.80;99.90;;;;;;5050055;28;20029;-71
2021/04/02 02:36:25;;;;;;;30.85;17.55;;;8.80;99.90;;;;;;5050567;28;20025;-71
2021/04/02 02:38:51;;;;;;;30.55;18.80;;;8.80;99.90;;;;;;5053517;28;20059;-71
2021/04/02 02:41:17;;;;;;;32.10;20.55;;;8.80;99.90;;;;;;5055273;28;20502;-70
2021/04/02 02:43:45;;;;;;;41.15;22.05;;;8.80;99.90;;;;;;5054193;28;20021;-71
2021/04/02 02:46:11;;;;;;;40.05;21.73;;;8.80;99.90;;;;;;5054653;28;20021;-70
2021/04/02 02:48:37;;;;;;;42.38;21.88;;;8.70;99.90;;;;;;5054754;28;20098;-71
2021/04/02 02:51:04;;;;;;;44.58;22.70;;;8.70;99.90;;;;;;5054551;28;20067;-71
2021/04/02 02:53:31;;;;;;;51.10;25.60;;;8.60;99.90;;;;;;5053933;28;20163;-70
2021/04/02 02:56:00;;;;;;;48.13;25.52;;;8.60;99.90;;;;;;5054583;28;20604;-72
2021/04/02 02:58:28;;;;;;;48.42;25.05;;;8.60;99.90;;;;;;5054836;28;20498;-73
2021/04/02 03:00:56;;;;;;;41.75;23.10;;;8.60;99.90;;;;;;5053363;28;20029;-72
2021/04/02 03:03:25;;;;;;;37.28;20.92;;;8.60;99.90;;;;;;5057272;28;20166;-70
2021/04/02 03:05:52;;;;;;;39.33;22.25;;;8.50;99.90;;;;;;5061193;28;20060;-70
2021/04/02 03:08:21;;;;;;;44.03;23.35;;;8.50;99.90;;;;;;5055450;28;20029;-71
2021/04/02 03:10:48;;;;;;;46.35;23.45;;;8.50;99.90;;;;;;5054877;28;20118;-72
2021/04/02 03:13:18;;;;;;;43.80;24.25;;;8.50;99.90;;;;;;5054196;28;20105;-72
2021/04/02 03:15:45;;;;;;;41.58;22.50;;;8.50;99.90;;;;;;5054229;28;20029;-73
2021/04/02 03:18:15;;;;;;;47.90;24.80;;;8.40;99.90;;;;;;5054271;28;20114;-70
2021/04/02 03:20:45;;;;;;;52.42;25.08;;;8.40;99.90;;;;;;5053972;28;20041;-69
2021/04/02 03:23:12;;;;;;;48.33;25.60;;;8.40;99.90;;;;;;5053434;28;20025;-71
2021/04/02 03:25:39;;;;;;;50.67;26.17;;;8.40;99.90;;;;;;5054142;28;20048;-70
2021/04/02 03:28:06;;;;;;;49.15;25.38;;;8.30;99.90;;;;;;5054879;28;20033;-70
2021/04/02 03:30:32;;;;;;;59.90;27.90;;;8.30;99.90;;;;;;5053833;28;20028;-70
2021/04/02 03:33:19;;;;;;;49.25;24.77;;;8.20;99.90;;;;;;5053381;28;20025;-70
2021/04/02 03:35:47;;;;;;;47.85;25.73;;;8.20;99.90;;;;;;5053539;28;20024;-71
2021/04/02 03:38:15;;;;;;;45.72;25.15;;;8.10;99.90;;;;;;5053686;28;20475;-70
2021/04/02 03:40:43;;;;;;;52.33;27.33;;;8.10;99.90;;;;;;5053549;28;20397;-72
2021/04/02 03:43:09;;;;;;;57.55;28.85;;;8.10;99.90;;;;;;5052957;28;20104;-71
2021/04/02 03:45:38;;;;;;;49.65;26.73;;;8.20;99.90;;;;;;5053694;28;20029;-70
2021/04/02 03:48:06;;;;;;;42.95;25.10;;;8.10;99.90;;;;;;5054296;28;20036;-71
2021/04/02 03:50:45;;;;;;;55.20;29.20;;;8.10;99.90;;;;;;5053120;28;20048;-70
2021/04/02 03:53:11;;;;;;;57.55;28.13;;;8.00;99.90;;;;;;5052365;28;20503;-70
2021/04/02 03:55:41;;;;;;;53.47;27.40;;;8.00;99.90;;;;;;5053408;28;20029;-71
2021/04/02 03:58:10;;;;;;;57.67;30.63;;;8.00;99.90;;;;;;5053453;28;20051;-70
2021/04/02 04:00:46;;;;;;;62.92;29.48;;;8.10;99.90;;;;;;5053320;28;20031;-71
2021/04/02 04:03:15;;;;;;;65.30;31.40;;;8.10;99.90;;;;;;5052473;28;20384;-70
2021/04/02 04:08:22;;;;;;;66.65;32.80;;;8.00;99.90;;;;;;5061417;28;20051;-75
2021/04/02 04:10:49;;;;;;;55.65;29.35;;;8.00;99.90;;;;;;5074228;28;20066;-74
2021/04/02 04:13:17;;;;;;;61.42;30.40;;;7.90;99.90;;;;;;5077156;28;20134;-74
2021/04/02 04:15:45;;;;;;;59.58;28.95;;;7.90;99.90;;;;;;5075634;28;20029;-73
2021/04/02 04:18:12;;;;;;;58.47;30.38;;;7.80;99.90;;;;;;5075585;28;20197;-74
2021/04/02 04:20:40;;;;;;;56.58;28.38;;;7.80;99.90;;;;;;5073567;28;20103;-74
2021/04/02 04:23:07;;;;;;;57.92;29.23;;;7.80;99.90;;;;;;5070431;28;20020;-75
2021/04/02 04:25:35;;;;;;;49.58;27.65;;;7.80;99.90;;;;;;5072048;28;20218;-74
2021/04/02 04:28:02;;;;;;;51.47;28.35;;;7.80;99.90;;;;;;5072054;28;20447;-74
2021/04/02 04:30:30;;;;;;;52.47;28.85;;;7.70;99.90;;;;;;5071695;28;20498;-74
2021/04/02 04:32:57;;;;;;;53.72;27.77;;;7.70;99.90;;;;;;5072679;28;20033;-73
2021/04/02 04:35:24;;;;;;;53.85;26.30;;;7.70;99.90;;;;;;5071859;28;20031;-73
2021/04/02 04:37:51;;;;;;;56.90;27.77;;;7.80;99.90;;;;;;5071939;28;20082;-75
2021/04/02 04:40:24;;;;;;;53.92;27.48;;;7.70;99.90;;;;;;5072881;28;20025;-73
2021/04/02 04:42:50;;;;;;;51.45;27.45;;;7.70;99.90;;;;;;5048709;28;20024;-75
2021/04/02 04:45:22;;;;;;;46.88;26.08;;;7.80;99.90;;;;;;5032375;28;20593;-73
2021/04/02 04:47:48;;;;;;;45.92;25.00;;;7.70;99.90;;;;;;5043121;28;20021;-72
2021/04/02 04:50:15;;;;;;;53.80;25.10;;;7.80;99.90;;;;;;5072744;28;20138;-73
2021/04/02 04:53:08;;;;;;;43.83;26.40;;;7.70;99.90;;;;;;5071973;28;20044;-75
2021/04/02 04:55:38;;;;;;;48.50;25.48;;;7.70;99.90;;;;;;5066162;28;20041;-72
2021/04/02 04:58:11;;;;;;;46.42;25.70;;;7.70;99.90;;;;;;5070338;28;20028;-71
2021/04/02 05:00:38;;;;;;;;;;;7.60;99.90;;;;;;5061161;28;20021;-72
2021/04/02 05:03:06;;;;;;;43.83;23.70;;;7.70;99.90;;;;;;5049662;28;19967;-74
2021/04/02 05:05:35;;;;;;;47.95;23.50;;;7.70;99.90;;;;;;5059105;28;20023;-73
2021/04/02 05:08:06;;;;;;;49.33;24.27;;;7.60;99.90;;;;;;5070824;28;20028;-74
2021/04/02 05:10:33;;;;;;;46.92;25.58;;;7.60;99.90;;;;;;5069673;28;20020;-72
2021/04/02 05:13:01;;;;;;;43.95;24.98;;;7.60;99.90;;;;;;5070971;28;20078;-74
2021/04/02 05:15:27;;;;;;;43.88;25.08;;;7.60;99.90;;;;;;5070143;28;20040;-74
2021/04/02 05:17:54;;;;;;;46.72;24.60;;;7.60;99.90;;;;;;5070429;28;20148;-72
2021/04/02 05:20:42;;;;;;;45.90;24.75;;;7.60;99.90;;;;;;5069762;28;20847;-72
2021/04/02 05:23:09;;;;;;;41.90;23.88;;;7.60;99.90;;;;;;5069478;28;20538;-72
2021/04/02 05:25:35;;;;;;;50.10;24.85;;;7.60;99.90;;;;;;5069475;28;20538;-69
2021/04/02 05:28:01;;;;;;;48.10;24.65;;;7.60;99.90;;;;;;5069894;28;20029;-70
2021/04/02 05:30:28;;;;;;;41.78;22.50;;;7.60;99.90;;;;;;5069906;28;20052;-70
2021/04/02 05:32:54;;;;;;;44.15;24.75;;;7.60;99.90;;;;;;5067470;28;20097;-70
2021/04/02 05:35:20;;;;;;;42.80;23.67;;;7.60;99.90;;;;;;5069231;28;20079;-71
2021/04/02 05:37:45;;;;;;;43.00;23.75;;;7.60;99.90;;;;;;5064409;28;20029;-71
2021/04/02 05:40:11;;;;;;;48.92;25.73;;;7.60;99.90;;;;;;5038413;28;20021;-72
2021/04/02 05:42:45;;;;;;;42.85;23.10;;;7.60;99.90;;;;;;5033290;28;20068;-71
2021/04/02 05:45:13;;;;;;;44.40;24.40;;;7.70;99.90;;;;;;5040157;28;20072;-69
2021/04/02 05:47:41;;;;;;;40.35;22.63;;;7.70;99.90;;;;;;5053782;28;20033;-71
2021/04/02 05:50:08;;;;;;;44.83;23.30;;;7.70;99.90;;;;;;5039501;28;20021;-70
2021/04/02 05:52:35;;;;;;;37.50;21.73;;;7.70;99.90;;;;;;5046096;28;20040;-71
2021/04/02 05:55:02;;;;;;;38.20;22.85;;;7.70;99.90;;;;;;5051939;28;20036;-71
2021/04/02 05:57:28;;;;;;;40.83;20.25;;;7.70;99.90;;;;;;5065326;28;20025;-71
2021/04/02 05:59:56;;;;;;;21.35;11.55;;;7.80;99.90;;;;;;5054760;28;20663;-70
2021/04/02 06:02:22;;;;;;;33.20;17.80;;;7.80;99.90;;;;;;5050865;28;20481;-70
2021/04/02 06:04:47;;;;;;;34.33;18.40;;;8.10;99.90;;;;;;5049524;28;20029;-71
2021/04/02 06:07:13;;;;;;;26.98;14.48;;;8.00;99.90;;;;;;5049786;28;20036;-71
2021/04/02 06:09:39;;;;;;;16.45;9.80;;;8.00;99.90;;;;;;5048719;28;20040;-71
2021/04/02 06:12:05;;;;;;;16.15;8.50;;;8.10;99.90;;;;;;5049799;28;20021;-71
2021/04/02 06:14:30;;;;;;;15.05;5.22;;;8.10;99.90;;;;;;5047044;28;20033;-71
2021/04/02 06:16:56;;;;;;;10.23;5.13;;;8.10;99.90;;;;;;5068869;28;20036;-72
2021/04/02 06:19:22;;;;;;;10.25;4.78;;;8.20;99.90;;;;;;5068897;28;20478;-70
2021/04/02 06:21:52;;;;;;;9.05;4.38;;;8.30;99.90;;;;;;5070463;28;20046;-72
2021/04/02 06:24:43;;;;;;;7.20;4.47;;;8.40;99.90;;;;;;5068721;28;20179;-75
2021/04/02 06:27:13;;;;;;;10.45;4.25;;;8.50;99.90;;;;;;5067859;28;20028;-73
2021/04/02 06:29:41;;;;;;;8.55;3.85;;;8.50;99.90;;;;;;5051517;28;20029;-72
2021/04/02 06:32:10;;;;;;;9.85;4.38;;;8.60;99.90;;;;;;5052906;28;20526;-72
2021/04/02 06:34:47;;;;;;;5.72;3.22;;;8.50;99.90;;;;;;5050971;28;20111;-73
2021/04/02 06:37:18;;;;;;;9.90;4.32;;;8.50;99.90;;;;;;5060427;28;20442;-71
2021/04/02 06:39:53;;;;;;;4.53;3.58;;;8.40;99.90;;;;;;5069233;28;20035;-72
2021/04/02 06:42:33;;;;;;;7.60;4.00;;;8.50;99.90;;;;;;5069877;28;20521;-73
2021/04/02 06:45:03;;;;;;;10.00;3.53;;;8.60;99.90;;;;;;5070388;28;20048;-76
2021/04/02 06:47:40;;;;;;;4.88;3.60;;;8.70;99.90;;;;;;5071310;28;20103;-72
2021/04/02 06:50:23;;;;;;;9.20;3.65;;;8.80;99.90;;;;;;5069597;28;20043;-76
2021/04/02 06:52:51;;;;;;;6.10;4.10;;;8.90;99.90;;;;;;5077997;28;20027;-73
2021/04/02 06:55:18;;;;;;;7.88;3.95;;;9.30;99.90;;;;;;5073619;28;20028;-74
2021/04/02 06:57:49;;;;;;;7.05;3.75;;;9.60;99.90;;;;;;5069423;28;20025;-73
2021/04/02 07:00:20;;;;;;;8.85;3.67;;;9.60;99.90;;;;;;5069675;28;20027;-74
2021/04/02 07:02:47;;;;;;;10.00;4.20;;;9.40;99.90;;;;;;5069177;28;20036;-72
2021/04/02 07:05:20;;;;;;;4.97;3.60;;;9.30;99.90;;;;;;5069229;28;20513;-73
2021/04/02 07:07:51;;;;;;;7.38;4.05;;;9.30;99.90;;;;;;5069038;28;20115;-72
2021/04/02 07:10:19;;;;;;;9.07;4.30;;;9.40;99.90;;;;;;5069455;28;20020;-72
2021/04/02 07:12:48;;;;;;;7.15;3.53;;;9.50;99.90;;;;;;5068718;28;20485;-72
2021/04/02 07:15:14;;;;;;;4.78;3.53;;;9.50;99.90;;;;;;5068375;28;20542;-73
2021/04/02 07:17:41;;;;;;;5.50;4.07;;;9.50;99.90;;;;;;5069151;28;20379;-73
2021/04/02 07:20:07;;;;;;;6.07;3.88;;;9.50;99.90;;;;;;5069432;28;20036;-74
2021/04/02 07:22:33;;;;;;;11.05;4.85;;;9.60;99.90;;;;;;5068240;28;20600;-72
2021/04/02 07:24:59;;;;;;;7.63;4.75;;;9.80;99.90;;;;;;5069977;28;20050;-73
2021/04/02 07:27:27;;;;;;;13.13;4.65;;;10.00;99.90;;;;;;5073002;28;20044;-72
2021/04/02 07:29:57;;;;;;;8.65;4.57;;;9.90;99.90;;;;;;5072867;28;20090;-73
2021/04/02 07:32:23;;;;;;;9.43;4.50;;;10.00;99.90;;;;;;5073167;28;20044;-74
2021/04/02 07:34:50;;;;;;;8.05;4.63;;;10.20;99.90;;;;;;5055567;28;20033;-73
2021/04/02 07:37:18;;;;;;;7.05;4.68;;;10.30;99.90;;;;;;5060230;28;20071;-73
2021/04/02 07:39:48;;;;;;;9.63;4.78;;;10.40;99.90;;;;;;5050930;28;20083;-73
2021/04/02 07:42:14;;;;;;;8.65;5.20;;;10.40;99.90;;;;;;5047463;28;20029;-72
2021/04/02 07:44:45;;;;;;;8.25;5.15;;;10.70;99.90;;;;;;5052180;28;20382;-75
2021/04/02 07:47:12;;;;;;;8.18;4.57;;;10.90;99.90;;;;;;5050955;28;20486;-74
2021/04/02 07:49:39;;;;;;;12.43;5.40;;;10.90;99.90;;;;;;5051511;28;20033;-71
2021/04/02 07:52:05;;;;;;;7.95;5.35;;;11.20;99.90;;;;;;5052357;28;20096;-73
2021/04/02 07:54:34;;;;;;;8.43;5.28;;;11.60;99.90;;;;;;5051186;28;20475;-73
2021/04/02 07:57:06;;;;;;;10.13;5.25;;;11.60;99.90;;;;;;5044330;28;20076;-74
2021/04/02 07:59:43;;;;;;;13.75;4.72;;;12.00;99.90;;;;;;5040963;28;20053;-74
2021/04/02 08:02:29;;;;;;;9.20;4.43;;;12.30;99.90;;;;;;5035622;28;20072;-74
2021/04/02 08:04:57;;;;;;;6.45;5.03;;;12.50;99.90;;;;;;5031428;28;20064;-74
2021/04/02 08:07:37;;;;;;;6.88;4.50;;;13.00;99.90;;;;;;5030700;28;20438;-74
2021/04/02 08:10:19;;;;;;;6.55;3.95;;;13.00;99.90;;;;;;5055300;28;20036;-74
2021/04/02 08:12:44;;;;;;;6.60;4.47;;;13.40;99.90;;;;;;5072643;28;20051;-74
2021/04/02 08:15:16;;;;;;;7.38;5.18;;;12.60;99.90;;;;;;5073626;28;20033;-74
2021/04/02 08:17:42;;;;;;;11.10;4.87;;;12.40;99.90;;;;;;5075160;28;20084;-75
2021/04/02 08:20:17;;;;;;;9.80;4.95;;;12.60;99.90;;;;;;5075327;28;20901;-74
2021/04/02 08:22:43;;;;;;;10.45;5.68;;;12.60;99.90;;;;;;5057105;28;20053;-73
2021/04/02 08:25:11;;;;;;;10.63;6.13;;;13.00;99.90;;;;;;5051946;28;20025;-73
2021/04/02 08:27:40;;;;;;;7.43;5.55;;;13.00;99.90;;;;;;5054138;28;20374;-72
2021/04/02 08:30:08;;;;;;;12.82;5.18;;;12.60;99.90;;;;;;5053075;28;20021;-71
2021/04/02 08:32:39;;;;;;;7.75;4.88;;;12.10;99.90;;;;;;5054250;28;20028;-73
2021/04/02 08:35:07;;;;;;;11.63;4.47;;;11.90;99.90;;;;;;5054112;28;20493;-74
2021/04/02 08:37:33;;;;;;;8.25;5.32;;;11.70;99.90;;;;;;5069047;28;20028;-73
2021/04/02 08:40:07;;;;;;;9.00;5.38;;;12.20;99.90;;;;;;5074386;28;20071;-74
2021/04/02 08:42:33;;;;;;;9.48;5.72;;;12.30;99.90;;;;;;5077086;28;20020;-73
2021/04/02 08:45:06;;;;;;;7.55;5.47;;;12.60;99.90;;;;;;5075134;28;20150;-74
2021/04/02 08:47:32;;;;;;;11.60;5.55;;;13.00;99.90;;;;;;5073966;28;20024;-73
2021/04/02 08:49:57;;;;;;;6.82;4.80;;;13.30;99.90;;;;;;5076044;28;20025;-73
2021/04/02 08:52:25;;;;;;;9.38;5.53;;;13.30;99.90;;;;;;5075690;28;20102;-74
2021/04/02 08:55:04;;;;;;;8.23;4.97;;;14.40;98.40;;;;;;5075345;28;20052;-75
2021/04/02 08:57:31;;;;;;;4.88;3.88;;;14.00;98.20;;;;;;5072609;28;20502;-74
2021/04/02 08:59:58;;;;;;;7.50;5.22;;;14.30;98.30;;;;;;5073958;28;20036;-74
2021/04/02 09:02:31;;;;;;;7.15;4.60;;;15.90;96.10;;;;;;5074046;28;20110;-74
2021/04/02 09:05:00;;;;;;;8.00;4.57;;;15.70;93.40;;;;;;5072421;28;20032;-74
2021/04/02 09:07:26;;;;;;;4.43;4.03;;;16.80;93.30;;;;;;5074029;28;20055;-74
2021/04/02 09:09:52;;;;;;;9.55;4.70;;;17.70;90.90;;;;;;5072639;28;20025;-74
2021/04/02 09:12:20;;;;;;;8.52;4.70;;;17.30;88.20;;;;;;5072259;28;20435;-75
2021/04/02 09:14:49;;;;;;;7.57;5.00;;;17.40;90.40;;;;;;5073401;28;20108;-75
2021/04/02 09:17:19;;;;;;;7.53;5.35;;;16.50;90.10;;;;;;5073813;28;20037;-75
2021/04/02 09:19:45;;;;;;;7.28;4.70;;;15.80;91.20;;;;;;5048339;28;20569;-75
2021/04/02 09:22:12;;;;;;;9.15;4.68;;;16.40;90.60;;;;;;5033408;28;20033;-74
2021/04/02 09:24:42;;;;;;;5.15;4.28;;;17.50;87.50;;;;;;5033147;28;20396;-76
2021/04/02 09:27:12;;;;;;;5.68;4.50;;;17.90;83.00;;;;;;5033276;28;20164;-75
2021/04/02 09:29:37;;;;;;;6.53;4.95;;;18.00;82.80;;;;;;5032045;28;20396;-76
2021/04/02 09:32:05;;;;;;;11.15;5.68;;;16.80;82.30;;;;;;5032589;28;20025;-76
2021/04/02 09:34:31;;;;;;;4.53;4.13;;;15.50;88.00;;;;;;5033322;28;20096;-76
2021/04/02 09:36:57;;;;;;;7.82;4.20;;;17.00;87.60;;;;;;5033501;28;20049;-74
2021/04/02 09:39:30;;;;;;;9.20;5.13;;;19.00;79.90;;;;;;5057525;28;20029;-74
2021/04/02 09:42:01;;;;;;;5.95;5.10;;;19.40;74.30;;;;;;5073156;28;20024;-74
2021/04/02 09:44:32;;;;;;;6.63;4.82;;;18.80;73.10;;;;;;5073185;28;20020;-75
2021/04/02 09:47:09;;;;;;;6.45;4.68;;;18.80;74.80;;;;;;5073487;28;20077;-77
2021/04/02 09:49:36;;;;;;;10.40;4.72;;;19.00;73.80;;;;;;5074449;28;20028;-76
2021/04/02 09:52:04;;;;;;;5.20;4.10;;;19.60;71.10;;;;;;5075759;28;20490;-75
2021/04/02 09:54:31;;;;;;;4.40;3.97;;;18.10;73.50;;;;;;5074105;28;20035;-76
2021/04/02 09:57:00;;;;;;;4.63;4.00;;;18.70;72.90;;;;;;5074598;28;20040;-75
2021/04/02 09:59:26;;;;;;;4.70;4.15;;;20.10;71.50;;;;;;5071264;28;20105;-74
2021/04/02 10:01:52;;;;;;;8.40;4.38;;;20.40;67.90;;;;;;5073191;28;20475;-75
2021/04/02 10:04:18;;;;;;;5.47;4.30;;;21.10;65.30;;;;;;5073034;28;20115;-76
2021/04/02 10:06:45;;;;;;;9.70;4.70;;;21.50;65.00;;;;;;5073264;28;20502;-74
2021/04/02 10:09:11;;;;;;;6.28;4.40;;;21.60;60.90;;;;;;5072714;28;20035;-74
2021/04/02 10:11:42;;;;;;;7.75;5.07;;;20.10;63.10;;;;;;5073781;28;20418;-75
2021/04/02 10:14:08;;;;;;;9.27;5.18;;;19.50;63.50;;;;;;5066053;28;20021;-74
2021/04/02 10:16:33;;;;;;;5.55;4.28;;;19.90;67.20;;;;;;5054029;28;20522;-76
2021/04/02 10:19:01;;;;;;;11.82;5.68;;;20.90;63.90;;;;;;5053539;28;20060;-74
2021/04/02 10:21:27;;;;;;;7.07;5.45;;;19.50;64.10;;;;;;5056549;28;20019;-75
2021/04/02 10:23:53;;;;;;;8.75;5.45;;;20.50;64.40;;;;;;5052230;28;20021;-74
2021/04/02 10:26:20;;;;;;;7.38;5.57;;;20.50;63.90;;;;;;5051519;28;20075;-75
2021/04/02 10:28:46;;;;;;;8.27;5.55;;;19.90;65.90;;;;;;5050816;28;20045;-73
2021/04/02 10:31:13;;;;;;;9.20;5.88;;;19.90;64.50;;;;;;5050473;28;20028;-75
2021/04/02 10:33:39;;;;;;;8.82;5.28;;;19.00;65.70;;;;;;5049775;28;20029;-74
2021/04/02 10:36:05;;;;;;;8.85;6.22;;;18.90;68.70;;;;;;5052721;28;20065;-74
2021/04/02 10:38:31;;;;;;;9.05;6.15;;;19.10;70.00;;;;;;5070381;28;20495;-73
2021/04/02 10:40:57;;;;;;;8.30;6.05;;;20.20;64.00;;;;;;5070062;28;20096;-74
2021/04/02 10:43:23;;;;;;;9.13;7.07;;;20.00;65.70;;;;;;5069657;28;20029;-75
2021/04/02 10:45:49;;;;;;;10.73;6.15;;;19.00;65.80;;;;;;5070511;28;20016;-73
2021/04/02 10:48:15;;;;;;;8.00;5.85;;;19.00;69.20;;;;;;5069333;28;20074;-75
2021/04/02 10:50:43;;;;;;;7.82;5.40;;;21.00;66.20;;;;;;5068955;28;20028;-73
2021/04/02 10:53:10;;;;;;;7.47;5.80;;;22.80;59.70;;;;;;5068672;28;20025;-73
2021/04/02 10:55:36;;;;;;;7.50;6.63;;;22.00;59.10;;;;;;5069025;28;20116;-74
2021/04/02 10:58:05;;;;;;;8.05;5.63;;;22.20;60.30;;;;;;5068866;28;20107;-74
2021/04/02 11:00:31;;;;;;;9.60;6.40;;;22.60;58.20;;;;;;5071115;28;20025;-76
2021/04/02 11:02:57;;;;;;;6.70;6.15;;;20.60;60.00;;;;;;5072955;28;20025;-77
2021/04/02 11:05:22;;;;;;;10.13;6.28;;;21.40;62.20;;;;;;5073411;28;20482;-74
2021/04/02 11:07:48;;;;;;;8.38;6.13;;;22.00;60.80;;;;;;5072964;28;20115;-74
2021/04/02 11:10:14;;;;;;;6.68;6.13;;;20.60;63.50;;;;;;5072678;28;20119;-74
2021/04/02 11:12:40;;;;;;;6.97;6.20;;;20.40;62.30;;;;;;5072556;28;20503;-74
2021/04/02 11:15:08;;;;;;;9.38;5.97;;;20.60;64.30;;;;;;5073581;28;20029;-73
2021/04/02 11:17:34;;;;;;;8.80;6.00;;;22.30;58.20;;;;;;5074185;28;20024;-73
2021/04/02 11:20:00;;;;;;;6.13;5.53;;;23.60;57.80;;;;;;5073835;28;20085;-73
2021/04/02 11:22:26;;;;;;;8.77;6.00;;;22.30;58.80;;;;;;5073030;28;20463;-73
2021/04/02 11:24:52;;;;;;;8.35;6.53;;;22.50;57.90;;;;;;5071988;28;20095;-73
2021/04/02 11:27:21;;;;;;;7.28;6.45;;;22.00;56.80;;;;;;5072799;28;20486;-74
2021/04/02 11:29:47;;;;;;;6.20;5.35;;;22.70;58.00;;;;;;5073778;28;20078;-74
2021/04/02 11:32:13;;;;;;;6.97;5.78;;;21.40;59.70;;;;;;5072860;28;20062;-76
2021/04/02 11:34:39;;;;;;;7.00;6.30;;;22.10;61.10;;;;;;5071006;28;20067;-74
2021/04/02 11:37:05;;;;;;;7.20;6.32;;;20.30;60.80;;;;;;5072331;28;20024;-74
2021/04/02 11:39:32;;;;;;;6.75;5.38;;;21.00;66.20;;;;;;5072867;28;20067;-74
2021/04/02 11:41:58;;;;;;;8.38;6.80;;;21.50;59.60;;;;;;5071357;28;20029;-72
2021/04/02 11:44:26;;;;;;;7.65;6.80;;;21.80;57.40;;;;;;5071471;28;20033;-72
2021/04/02 11:46:52;;;;;;;9.50;6.40;;;22.60;55.00;;;;;;5072358;28;20062;-73
2021/04/02 11:49:18;;;;;;;9.45;5.85;;;22.70;55.10;;;;;;5072160;28;20033;-75
2021/04/02 11:51:44;;;;;;;6.75;6.07;;;22.70;57.70;;;;;;5072283;28;20028;-74
2021/04/02 11:54:10;;;;;;;7.63;5.78;;;22.60;56.40;;;;;;5071724;28;20039;-74
2021/04/02 11:56:36;;;;;;;6.47;5.70;;;22.30;55.40;;;;;;5071794;28;20037;-75
2021/04/02 11:59:01;;;;;;;6.68;5.40;;;22.10;56.70;;;;;;5048104;28;20026;-73
2021/04/02 12:01:27;;;;;;;9.80;5.88;;;22.00;56.50;;;;;;5032474;28;20540;-75
2021/04/02 12:03:53;;;;;;;8.40;6.10;;;21.80;55.80;;;;;;5033656;28;20018;-76
2021/04/02 12:06:19;;;;;;;6.50;5.18;;;21.40;56.70;;;;;;5033874;28;20109;-74
2021/04/02 12:08:44;;;;;;;5.82;5.32;;;21.70;58.00;;;;;;5045935;28;20028;-73
2021/04/02 12:11:10;;;;;;;6.78;6.07;;;21.60;54.90;;;;;;5057246;28;20423;-73
2021/04/02 12:13:36;;;;;;;6.93;6.05;;;20.40;56.50;;;;;;5052942;28;20025;-74
2021/04/02 12:16:01;;;;;;;7.60;5.65;;;20.30;58.10;;;;;;5053348;28;20025;-73
2021/04/02 12:18:27;;;;;;;6.57;5.97;;;21.40;56.90;;;;;;5052381;28;20033;-74
2021/04/02 12:20:53;;;;;;;5.53;5.10;;;21.30;56.20;;;;;;5053653;28;20450;-74
2021/04/02 12:23:19;;;;;;;6.45;4.90;;;20.60;56.10;;;;;;5051747;28;20055;-73
2021/04/02 12:25:45;;;;;;;6.15;5.55;;;21.30;56.50;;;;;;5052985;28;20040;-73
2021/04/02 12:28:11;;;;;;;7.93;7.18;;;21.50;54.60;;;;;;5054080;28;20025;-73
2021/04/02 12:30:37;;;;;;;8.82;6.80;;;20.00;55.90;;;;;;5057023;28;20597;-72
2021/04/02 12:33:04;;;;;;;7.60;6.80;;;20.00;58.30;;;;;;5056018;28;20044;-72
2021/04/02 12:35:29;;;;;;;6.50;5.60;;;19.70;57.90;;;;;;5054048;28;20479;-74
2021/04/02 12:37:55;;;;;;;8.00;6.38;;;20.30;58.10;;;;;;5053193;28;20024;-73
2021/04/02 12:40:23;;;;;;;8.25;6.68;;;21.40;55.20;;;;;;5033136;28;20036;-73
2021/04/02 12:42:49;;;;;;;6.70;5.65;;;21.80;53.70;;;;;;5032771;28;20029;-72
2021/04/02 12:45:16;;;;;;;8.45;6.50;;;21.40;55.00;;;;;;5033815;28;20551;-73
2021/04/02 12:47:42;;;;;;;7.63;6.65;;;21.30;54.00;;;;;;5032133;28;20021;-72
2021/04/02 12:50:16;;;;;;;6.53;5.60;;;21.80;53.40;;;;;;5033254;28;20030;-72
2021/04/02 12:52:43;;;;;;;6.93;5.93;;;21.20;54.90;;;;;;5032192;28;20435;-72